Huvudsida
METAR-TAF:

METAR-TAF

Flygplatser :

Norman Manley International Airport

Kingston, Jamaica

latitud: 17-56N, longitud: 076-47W, höjd: 3 m

Aktuellt väderrapport

Denna rapport gjordes för 12 minuter sedan, klockan 01:00 UTC
Vind 14 kt från ost/sydost
Temperatur 30°C
Fuktighet 66%
Tryck 1014 hPa
Sikt 10 km eller mer
Få moln på en höjd av 2200 ft

METAR: MKJP 220100Z 12014KT 9999 FEW022 30/23 Q1014

Tid: 20:12 (01:12 UTC)

Väderprognos

Denna rapport gjordes för 1 timme och 57 minuter sedan, klockan 23:15 UTC
Prognos gäller från 22 kl. 00 UTC till 22 kl. 24 UTC
Vind 22 kt från sydost
Sikt 10 km eller mer
Få moln på en höjd av 2400 ft
Blir
från 22 kl. 01 UTC till 22 kl. 03 UTC
Vind 10 kt från sydost
Blir
från 22 kl. 07 UTC till 22 kl. 09 UTC
Vind 5 kt från nord
Blir
från 22 kl. 14 UTC till 22 kl. 16 UTC
Vind 20 kt från ost/nordost
Sikt 10 km eller mer
Få moln på en höjd av 2400 ft
Blir
från 22 kl. 01 UTC till 22 kl. 03 UTC
Vind 5 kt från ost/sydost
Blir
från 22 kl. 14 UTC till 22 kl. 16 UTC
Vind 20 kt från ost/nordost

TAF: MKJP 212315Z 2200/2224 14022KT 9999 FEW024 BECMG 2201/2203 13010KT BECMG 2207/2209 35005KT BECMG 2214/2216 14025KT MKJS 212315Z 2200/2224 07020KT 9999 FEW024 BECMG 2201/2203 12005KT BECMG 2214/2216 07020KT

Aktuella väderrapporter och prognoser från 4000 flygplatser (METAR- och TAF-rapporter).

De tillgängliga stationerna syns som gula och röda prickar på kartan.

För musen över prickarna för att se namnen på stationerna.

Klicka sedan för att få väderrapporter och prognoser.

För att ändra kartan: Klicka på de gröna knapparna med ett svart kors på för att zooma in; den gröna knappen med ett streck på för att zooma ut; eller på de gröna pilarna för angränsande kartor.


METAR-TAF: